Saline, MI

7:03 PM EDT on March 24, 2017 (GMT -0400)
Southwest City | | Change Station

Elev 825 ft 42.17 °N, 83.79 °W | Updated 36 seconds ago

Clear
Clear
73.1 °F
Feels Like 77 °F
N
4.0
Wind Variable Wind from WSW

Today
High -- | Low -- °F
--% Chance of Precip.
Yesterday
High -- | Low -- °F
Precip. -- in
Pressure 29.94 in
Visibility 10.0 miles
Clouds Clear
Heat Index 77 °F
Dew Point 55 °F
Humidity 53%
Rainfall 0.79 in
Snow Depth Not available.
7:31 AM 7:52 PM
Waning Crescent, 12% visible
METAR KARB 242253Z 22015KT 10SM CLR 23/10 A2994 RMK AO2 SLP137 T02280100
Pressure 29.94 in
Visibility 10.0 miles
Clouds Clear
Heat Index 77 °F
Dew Point 55 °F
Humidity 53%
Rainfall 0.79 in
Snow Depth Not available.
7:31 AM 7:52 PM
Waning Crescent, 12% visible
METAR KARB 242253Z 22015KT 10SM CLR 23/10 A2994 RMK AO2 SLP137 T02280100

Get Severe Weather Alerts

Thanks for signing up!

Be on the lookout for a verification email in your inbox.

You'll start receiving the daily forecast at 8 AM.

×

10-Day Weather Forecast

Almanac

Astronomy

Mar. 24, 2017 Rise Set
Actual Time
Civil Twilight
Nautical Twilight
Astronomical Twilight
Moon
Length of Visible Light
Length of Day
Tomorrow will be .
, % of the Moon is Illuminated

Today's Extremes

State Highs State Lows

Community

WunderPhotos

Upload Photos

1,962,540 photos uploaded!

WunderBlog® & News

Nearby

Air Quality

  Air Quality AQ Index Pollutant
Not available.

Snow Depth

Station Depth Elevation

Earthquake Activity

City Distance Mag. Time & Date
Minimum magnitude displayed is 2.5.

Earthquake Activity

City Distance Mag. Time & Date
Minimum magnitude displayed is 2.5.

Coastal Water Temperatures

Place Temperature

Stations

Nearby Weather Stations

Station Location Temp. Windchill Dew Point Humidity Wind Precip. Elev Updated Type
                   

Watches & Warnings

There are currently no watches in effect.